createdAt,value
2023-05-22T00:00:53.147Z,20.73
2023-05-22T00:03:20.749Z,16.42
2023-05-22T00:05:48.552Z,20.85
2023-05-22T00:08:15.512Z,17.50
2023-05-22T00:10:45.822Z,21.05
2023-05-22T00:13:13.829Z,19.73
2023-05-22T00:15:41.468Z,21.35
2023-05-22T00:18:08.627Z,16.92
2023-05-22T00:20:41.171Z,20.83
2023-05-22T00:23:12.580Z,16.88
2023-05-22T00:25:41.917Z,18.27
2023-05-22T00:28:09.196Z,18.05
2023-05-22T00:30:36.924Z,18.63
2023-05-22T00:33:07.088Z,19.90
2023-05-22T00:35:34.022Z,18.35
2023-05-22T00:38:07.313Z,17.00
2023-05-22T00:40:35.490Z,22.25
2023-05-22T00:43:08.885Z,17.13
2023-05-22T00:45:35.733Z,15.52
2023-05-22T00:48:02.645Z,29.23
2023-05-22T00:50:30.388Z,18.53
2023-05-22T00:52:57.569Z,21.58
2023-05-22T00:55:24.198Z,25.52
2023-05-22T00:57:54.032Z,27.92
2023-05-22T01:00:22.972Z,30.55
2023-05-22T01:02:51.963Z,19.63
2023-05-22T01:05:21.687Z,19.70
2023-05-22T01:07:51.685Z,21.13
2023-05-22T01:10:22.680Z,21.13
2023-05-22T01:12:59.085Z,27.50
2023-05-22T01:15:52.033Z,20.47
2023-05-22T01:18:32.743Z,21.52
2023-05-22T01:21:16.710Z,24.45
2023-05-22T01:24:23.539Z,21.17
2023-05-22T01:27:36.781Z,23.65
2023-05-22T01:30:29.124Z,24.07
2023-05-22T01:33:00.355Z,22.38
2023-05-22T01:35:34.370Z,23.55
2023-05-22T01:38:04.724Z,22.23
2023-05-22T01:40:33.592Z,28.38
2023-05-22T01:43:02.762Z,27.67
2023-05-22T01:45:32.005Z,22.23
2023-05-22T01:48:01.226Z,24.13
2023-05-22T01:50:28.348Z,29.63
2023-05-22T01:53:13.896Z,28.20
2023-05-22T01:56:01.841Z,22.80
2023-05-22T01:59:00.165Z,24.33
2023-05-22T02:01:33.795Z,23.98
2023-05-22T02:04:02.132Z,25.77
2023-05-22T02:06:33.777Z,24.75
2023-05-22T02:09:04.709Z,26.07
2023-05-22T02:11:33.482Z,21.40
2023-05-22T02:14:02.050Z,25.90
2023-05-22T02:16:30.864Z,20.23
2023-05-22T02:19:06.609Z,24.27
2023-05-22T02:21:38.408Z,24.17
2023-05-22T02:24:05.827Z,26.58
2023-05-22T02:26:34.194Z,23.25
2023-05-22T02:29:05.011Z,25.15
2023-05-22T02:31:31.785Z,23.98
2023-05-22T02:34:00.170Z,24.07
2023-05-22T02:36:27.043Z,24.33
2023-05-22T02:38:55.568Z,20.95
2023-05-22T02:41:22.594Z,18.95
2023-05-22T02:43:50.932Z,21.08
2023-05-22T02:46:19.013Z,20.33
2023-05-22T02:48:47.368Z,24.33
2023-05-22T02:51:14.008Z,22.35
2023-05-22T02:53:41.774Z,26.08
2023-05-22T02:56:10.746Z,25.00
2023-05-22T02:58:44.951Z,25.73
2023-05-22T03:01:11.713Z,21.38
2023-05-22T03:03:38.855Z,23.20
2023-05-22T03:06:06.748Z,27.00
2023-05-22T03:08:35.057Z,21.85
2023-05-22T03:11:03.511Z,35.20
2023-05-22T03:13:37.586Z,21.38
2023-05-22T03:16:06.891Z,24.58
2023-05-22T03:18:37.010Z,24.10
2023-05-22T03:21:05.611Z,33.60
2023-05-22T03:23:33.571Z,23.97
2023-05-22T03:26:01.113Z,49.55
2023-05-22T03:28:27.674Z,25.08
2023-05-22T03:30:55.127Z,48.38
2023-05-22T03:33:23.988Z,37.63
2023-05-22T03:36:00.290Z,33.83
2023-05-22T03:38:29.862Z,48.80
2023-05-22T03:40:57.759Z,22.55
2023-05-22T03:43:24.400Z,53.17
2023-05-22T03:45:52.146Z,30.52
2023-05-22T03:48:18.801Z,41.73
2023-05-22T03:50:49.782Z,36.75
2023-05-22T03:53:17.269Z,42.70
2023-05-22T03:55:43.912Z,32.20
2023-05-22T03:58:11.241Z,32.60
2023-05-22T04:00:38.791Z,30.97
2023-05-22T04:03:06.275Z,53.33
2023-05-22T04:05:36.783Z,38.60
2023-05-22T04:08:05.099Z,66.05
2023-05-22T04:10:32.300Z,29.42
2023-05-22T04:12:59.595Z,20.43
2023-05-22T04:15:27.306Z,42.28
2023-05-22T04:17:54.945Z,34.85
2023-05-22T04:20:22.456Z,34.80
2023-05-22T04:22:49.746Z,30.15
2023-05-22T04:25:20.974Z,17.00
2023-05-22T04:27:49.656Z,29.88
2023-05-22T04:33:20.569Z,19.27
2023-05-22T04:35:48.371Z,16.38
2023-05-22T04:38:31.590Z,20.50
2023-05-22T04:41:00.281Z,19.70
2023-05-22T04:43:28.058Z,19.40
2023-05-22T04:45:57.044Z,18.92
2023-05-22T04:48:25.458Z,22.90
2023-05-22T04:50:55.138Z,21.93
2023-05-22T04:53:25.847Z,22.52
2023-05-22T04:55:53.764Z,23.42
2023-05-22T04:58:20.861Z,20.85
2023-05-22T05:00:49.862Z,24.98
2023-05-22T05:03:16.843Z,20.43
2023-05-22T05:05:45.209Z,23.00
2023-05-22T05:08:12.894Z,23.08
2023-05-22T05:10:39.879Z,29.63
2023-05-22T05:13:08.776Z,25.05
2023-05-22T05:15:38.149Z,22.93
2023-05-22T05:18:05.123Z,27.17
2023-05-22T05:20:31.665Z,23.77
2023-05-22T05:23:00.270Z,30.60
2023-05-22T05:25:27.205Z,28.88
2023-05-22T05:27:54.036Z,29.50
2023-05-22T05:30:26.703Z,27.25
2023-05-22T05:32:56.258Z,30.17
2023-05-22T05:35:23.290Z,21.85
2023-05-22T05:37:53.815Z,21.85
2023-05-22T05:40:20.667Z,26.10
2023-05-22T05:42:47.284Z,21.02
2023-05-22T05:45:15.163Z,22.00
2023-05-22T05:47:42.323Z,23.40
2023-05-22T05:50:13.489Z,23.52
2023-05-22T05:52:40.806Z,31.77
2023-05-22T05:55:09.054Z,18.77
2023-05-22T05:57:36.110Z,18.52
2023-05-22T06:00:03.303Z,20.65
2023-05-22T06:02:30.269Z,21.17
2023-05-22T06:04:57.097Z,15.27
2023-05-22T06:07:24.602Z,23.08
2023-05-22T06:09:53.942Z,20.88
2023-05-22T06:12:20.498Z,17.08
2023-05-22T06:14:47.660Z,21.38
2023-05-22T06:17:17.281Z,15.97
2023-05-22T06:19:43.869Z,14.73
2023-05-22T06:22:11.960Z,16.00
2023-05-22T06:24:40.224Z,19.17
2023-05-22T06:27:07.186Z,14.85
2023-05-22T06:32:14.217Z,15.93
2023-05-22T06:34:41.095Z,16.23
2023-05-22T06:37:07.765Z,18.85
2023-05-22T06:39:35.308Z,17.27
2023-05-22T06:42:02.789Z,15.23
2023-05-22T06:44:29.600Z,18.05
2023-05-22T06:46:57.048Z,19.33
2023-05-22T06:49:24.214Z,15.88
2023-05-22T06:51:52.555Z,18.00
2023-05-22T06:54:21.218Z,19.77
2023-05-22T06:56:48.577Z,21.02
2023-05-22T06:59:15.458Z,17.35
2023-05-22T07:01:42.517Z,15.00
2023-05-22T07:04:11.981Z,16.38
2023-05-22T07:06:45.637Z,13.83
2023-05-22T07:09:13.866Z,20.35
2023-05-22T07:11:42.487Z,14.07
2023-05-22T07:14:09.165Z,14.80
2023-05-22T07:16:36.953Z,14.20
2023-05-22T07:19:03.840Z,17.33
2023-05-22T07:21:36.197Z,18.58
2023-05-22T07:24:08.420Z,18.17
2023-05-22T07:26:43.791Z,16.25
2023-05-22T07:29:17.567Z,16.20
2023-05-22T07:31:46.519Z,16.27
2023-05-22T07:34:16.724Z,12.43
2023-05-22T07:36:44.649Z,14.98
2023-05-22T07:39:14.494Z,18.30
2023-05-22T07:41:41.726Z,14.85
2023-05-22T07:44:08.400Z,13.50
2023-05-22T07:46:40.273Z,17.90
2023-05-22T07:49:06.886Z,15.13
2023-05-22T07:51:35.110Z,12.93
2023-05-22T07:54:01.845Z,14.05
2023-05-22T07:56:34.086Z,16.47
2023-05-22T07:59:01.475Z,15.63
2023-05-22T08:01:28.292Z,16.95
2023-05-22T08:03:55.406Z,19.05
2023-05-22T08:06:23.813Z,19.75
2023-05-22T08:08:55.348Z,22.87
2023-05-22T08:11:26.847Z,18.35
2023-05-22T08:13:53.718Z,16.67
2023-05-22T08:16:29.964Z,18.35
2023-05-22T08:18:57.604Z,19.70
2023-05-22T08:21:26.096Z,13.87
2023-05-22T08:23:52.898Z,17.05
2023-05-22T08:26:32.238Z,19.92
2023-05-22T08:29:05.678Z,13.82
2023-05-22T08:31:34.482Z,17.33
2023-05-22T08:34:05.793Z,18.60
2023-05-22T08:36:36.708Z,16.65
2023-05-22T08:41:53.806Z,14.85
2023-05-22T08:44:22.488Z,19.48
2023-05-22T08:46:56.680Z,12.57
2023-05-22T08:49:26.572Z,15.93
2023-05-22T08:52:00.939Z,14.68
2023-05-22T08:54:37.102Z,13.00
2023-05-22T08:57:07.683Z,13.20
2023-05-22T08:59:41.295Z,19.70
2023-05-22T09:02:10.368Z,12.13
2023-05-22T09:04:43.587Z,12.32
2023-05-22T09:07:12.719Z,16.23
2023-05-22T09:09:39.766Z,13.15
2023-05-22T09:12:11.048Z,16.73
2023-05-22T09:14:42.733Z,16.25
2023-05-22T09:17:13.843Z,17.75
2023-05-22T09:19:45.724Z,17.25
2023-05-22T09:22:14.560Z,14.75
2023-05-22T09:24:45.170Z,13.27
2023-05-22T09:27:12.395Z,16.52
2023-05-22T09:29:54.724Z,17.65
2023-05-22T09:32:21.708Z,15.77
2023-05-22T09:34:49.343Z,15.77
2023-05-22T09:37:17.685Z,11.73
2023-05-22T09:39:46.581Z,16.77
2023-05-22T09:42:17.156Z,20.05
2023-05-22T09:44:51.197Z,21.38
2023-05-22T09:47:18.089Z,20.48
2023-05-22T09:49:45.947Z,22.13
2023-05-22T09:52:13.244Z,15.50
2023-05-22T09:55:03.550Z,14.13
2023-05-22T09:57:37.016Z,15.07
2023-05-22T10:00:09.396Z,15.18
2023-05-22T10:02:38.352Z,12.13
2023-05-22T10:05:10.353Z,14.18
2023-05-22T10:07:52.113Z,13.02
2023-05-22T10:10:23.571Z,15.18
2023-05-22T10:12:57.369Z,13.60
2023-05-22T10:15:26.996Z,16.27
2023-05-22T10:17:55.354Z,19.83
2023-05-22T10:20:22.688Z,17.48
2023-05-22T10:22:49.663Z,12.98
2023-05-22T10:25:18.686Z,11.45
2023-05-22T10:27:46.039Z,11.57
2023-05-22T10:30:49.387Z,14.82
2023-05-22T10:33:18.449Z,15.07
2023-05-22T10:36:23.315Z,14.02
2023-05-22T10:38:56.411Z,14.05
2023-05-22T10:41:26.630Z,10.13
2023-05-22T10:43:57.701Z,11.95
2023-05-22T10:46:25.301Z,11.73
2023-05-22T10:48:55.446Z,11.68
2023-05-22T10:51:24.571Z,16.45
2023-05-22T10:54:07.869Z,15.37
2023-05-22T10:56:38.316Z,13.45
2023-05-22T10:59:08.228Z,12.93
2023-05-22T11:01:41.102Z,11.38
2023-05-22T11:04:12.263Z,12.43
2023-05-22T11:06:42.477Z,11.90
2023-05-22T11:09:31.021Z,14.50
2023-05-22T11:12:26.006Z,13.80
2023-05-22T11:15:03.012Z,11.38
2023-05-22T11:17:32.193Z,12.15
2023-05-22T11:20:20.387Z,10.27
2023-05-22T11:23:07.793Z,11.85
2023-05-22T11:25:38.320Z,15.05
2023-05-22T11:28:14.411Z,13.45
2023-05-22T11:34:16.460Z,10.80
2023-05-22T11:36:43.232Z,12.52
2023-05-22T11:39:14.762Z,16.55
2023-05-22T11:41:41.654Z,10.82
2023-05-22T11:44:08.796Z,11.73
2023-05-22T11:46:37.881Z,8.37
2023-05-22T11:49:05.636Z,12.23
2023-05-22T11:51:32.345Z,9.48
2023-05-22T11:53:59.206Z,10.43
2023-05-22T11:56:26.330Z,10.02
2023-05-22T11:58:54.137Z,7.63
2023-05-22T12:01:20.718Z,8.20
2023-05-22T12:03:50.908Z,7.60
2023-05-22T12:06:18.734Z,10.45
2023-05-22T12:08:48.814Z,10.43
2023-05-22T12:11:17.608Z,7.33
2023-05-22T12:13:44.968Z,10.10
2023-05-22T12:16:19.923Z,9.25
2023-05-22T12:18:46.718Z,9.20
2023-05-22T12:21:13.400Z,8.07
2023-05-22T12:23:50.463Z,9.80
2023-05-22T12:26:17.381Z,11.65
2023-05-22T12:28:44.658Z,8.93
2023-05-22T12:31:11.320Z,10.25
2023-05-22T12:33:39.992Z,7.53
2023-05-22T12:36:11.110Z,7.40
2023-05-22T12:38:39.569Z,7.43
2023-05-22T12:41:06.611Z,7.05
2023-05-22T12:43:33.490Z,10.05
2023-05-22T12:46:02.498Z,10.40
2023-05-22T12:48:40.926Z,8.70
2023-05-22T12:51:10.055Z,9.07
2023-05-22T12:53:37.872Z,6.88
2023-05-22T12:56:06.137Z,9.52
2023-05-22T12:58:32.772Z,8.40
2023-05-22T13:00:59.497Z,9.83
2023-05-22T13:03:26.122Z,12.88
2023-05-22T13:05:53.048Z,15.68
2023-05-22T13:08:20.827Z,9.05
2023-05-22T13:10:47.343Z,16.30
2023-05-22T13:13:14.380Z,13.20
2023-05-22T13:15:41.228Z,13.13
2023-05-22T13:18:10.536Z,8.55
2023-05-22T13:20:38.623Z,10.43
2023-05-22T13:23:05.648Z,14.27
2023-05-22T13:25:32.536Z,17.17
2023-05-22T13:28:00.080Z,12.63
2023-05-22T13:30:27.192Z,11.32
2023-05-22T13:32:55.160Z,11.00
2023-05-22T13:35:21.908Z,12.30
2023-05-22T13:37:49.331Z,6.53
2023-05-22T13:40:17.496Z,8.10
2023-05-22T13:42:44.187Z,8.02
2023-05-22T13:45:11.536Z,9.05
2023-05-22T13:47:39.424Z,9.45
2023-05-22T13:50:07.194Z,9.90
2023-05-22T13:52:33.987Z,6.82
2023-05-22T13:55:00.657Z,8.90
2023-05-22T13:57:27.536Z,7.93
2023-05-22T13:59:54.981Z,9.63
2023-05-22T14:02:22.039Z,7.63
2023-05-22T14:04:49.307Z,10.57
2023-05-22T14:07:17.334Z,13.02
2023-05-22T14:09:47.990Z,9.93
2023-05-22T14:12:16.096Z,8.50
2023-05-22T14:14:42.714Z,5.20
2023-05-22T14:17:10.562Z,7.50
2023-05-22T14:19:39.433Z,6.80
2023-05-22T14:22:06.328Z,11.02
2023-05-22T14:24:34.585Z,6.93
2023-05-22T14:27:01.333Z,21.70
2023-05-22T14:29:30.542Z,7.68
2023-05-22T14:32:05.474Z,7.63
2023-05-22T14:34:32.333Z,7.00
2023-05-22T14:36:59.406Z,6.88
2023-05-22T14:39:26.462Z,6.77
2023-05-22T14:41:54.114Z,6.75
2023-05-22T14:44:22.805Z,7.40
2023-05-22T14:46:51.576Z,7.68
2023-05-22T14:49:20.942Z,6.97
2023-05-22T14:51:51.230Z,6.73
2023-05-22T14:54:20.194Z,7.30
2023-05-22T14:56:47.010Z,4.95
2023-05-22T14:59:15.061Z,4.90
2023-05-22T15:01:42.185Z,5.18
2023-05-22T15:04:12.137Z,8.03
2023-05-22T15:06:39.668Z,6.70
2023-05-22T15:09:06.746Z,6.90
2023-05-22T15:11:38.074Z,5.97
2023-05-22T15:14:05.612Z,10.32
2023-05-22T15:16:39.094Z,5.73
2023-05-22T15:19:05.939Z,3.97
2023-05-22T15:21:35.952Z,4.47
2023-05-22T15:24:06.398Z,5.20
2023-05-22T15:29:18.856Z,4.90
2023-05-22T15:31:49.773Z,4.07
2023-05-22T15:34:18.193Z,7.28
2023-05-22T15:36:44.934Z,3.00
2023-05-22T15:39:13.670Z,2.47
2023-05-22T15:41:44.681Z,4.33
2023-05-22T15:44:15.716Z,4.13
2023-05-22T15:46:46.796Z,4.00
2023-05-22T15:49:16.202Z,2.38
2023-05-22T15:51:45.051Z,3.85
2023-05-22T15:54:14.897Z,4.93
2023-05-22T15:56:41.543Z,5.45
2023-05-22T15:59:08.409Z,2.42
2023-05-22T16:01:35.678Z,2.97
2023-05-22T16:04:05.848Z,2.20
2023-05-22T16:06:36.002Z,3.67
2023-05-22T16:09:06.096Z,2.50
2023-05-22T16:11:33.653Z,6.80
2023-05-22T16:14:03.023Z,3.60
2023-05-22T16:16:32.195Z,2.28
2023-05-22T16:18:58.926Z,5.77
2023-05-22T16:21:26.970Z,3.72
2023-05-22T16:23:57.649Z,4.13
2023-05-22T16:26:28.938Z,3.90
2023-05-22T16:28:57.345Z,4.85
2023-05-22T16:34:25.660Z,3.90
2023-05-22T16:37:05.598Z,3.00
2023-05-22T16:39:37.987Z,4.22
2023-05-22T16:42:07.654Z,3.17
2023-05-22T16:44:43.166Z,4.67
2023-05-22T16:47:17.399Z,4.13
2023-05-22T16:49:49.646Z,5.07
2023-05-22T16:52:22.230Z,3.78
2023-05-22T16:54:58.465Z,3.60
2023-05-22T16:57:30.982Z,3.53
2023-05-22T17:00:09.101Z,3.53
2023-05-22T17:02:44.441Z,6.95
2023-05-22T17:05:12.155Z,4.97
2023-05-22T17:10:29.801Z,3.50
2023-05-22T17:12:58.427Z,3.58
2023-05-22T17:15:42.610Z,3.42
2023-05-22T17:18:09.608Z,4.55
2023-05-22T17:20:55.663Z,4.60
2023-05-22T17:23:30.191Z,5.33
2023-05-22T17:25:57.336Z,6.65
2023-05-22T17:31:16.932Z,5.72
2023-05-22T17:34:00.128Z,5.43
2023-05-22T17:36:29.509Z,4.53
2023-05-22T17:38:56.507Z,5.20
2023-05-22T17:41:33.988Z,7.07
2023-05-22T17:47:00.180Z,4.97
2023-05-22T17:49:39.653Z,6.00
2023-05-22T17:52:10.882Z,5.13
2023-05-22T17:54:38.810Z,4.57
2023-05-22T17:57:10.354Z,6.95
2023-05-22T17:59:45.216Z,6.10
2023-05-22T18:02:12.770Z,6.77
2023-05-22T18:04:41.864Z,10.80
2023-05-22T18:09:58.295Z,6.30
2023-05-22T18:12:31.983Z,5.55
2023-05-22T18:15:07.654Z,5.33
2023-05-22T18:17:34.875Z,4.82
2023-05-22T18:20:04.483Z,4.97
2023-05-22T18:22:53.557Z,4.60
2023-05-22T18:25:23.956Z,9.02
2023-05-22T18:28:02.997Z,5.80
2023-05-22T18:33:17.980Z,6.35
2023-05-22T18:35:51.638Z,6.60
2023-05-22T18:38:36.586Z,8.32
2023-05-22T18:43:58.893Z,5.45
2023-05-22T18:49:07.379Z,6.45
2023-05-22T18:51:36.527Z,7.40
2023-05-22T18:54:03.196Z,4.73
2023-05-22T18:56:39.272Z,7.40
2023-05-22T18:59:09.387Z,4.25
2023-05-22T19:01:39.523Z,5.32
2023-05-22T19:04:07.228Z,12.65
2023-05-22T19:06:44.906Z,6.43
2023-05-22T19:09:15.293Z,5.97
2023-05-22T19:11:45.168Z,5.68
2023-05-22T19:14:14.076Z,11.10
2023-05-22T19:16:44.276Z,7.90
2023-05-22T19:19:19.467Z,7.37
2023-05-22T19:21:58.000Z,6.13
2023-05-22T19:24:32.382Z,7.55
2023-05-22T19:27:01.915Z,6.05
2023-05-22T19:29:34.631Z,6.72
2023-05-22T19:32:06.930Z,7.07
2023-05-22T19:40:15.364Z,8.27
2023-05-22T19:42:45.384Z,6.35
2023-05-22T19:45:15.303Z,7.50
2023-05-22T19:47:49.579Z,8.73
2023-05-22T19:50:19.983Z,7.20
2023-05-22T19:52:51.609Z,6.32
2023-05-22T19:55:23.737Z,13.20
2023-05-22T19:57:52.233Z,6.60
2023-05-22T20:03:05.731Z,6.80
2023-05-22T20:05:33.881Z,5.85
2023-05-22T20:08:03.384Z,6.97
2023-05-22T20:10:31.692Z,9.97
2023-05-22T20:12:59.555Z,9.25
2023-05-22T20:15:28.756Z,6.93
2023-05-22T20:18:02.938Z,8.35
2023-05-22T20:20:30.717Z,9.65
2023-05-22T20:22:58.785Z,11.93
2023-05-22T20:25:26.665Z,10.55
2023-05-22T20:27:55.736Z,8.23
2023-05-22T20:30:25.023Z,9.88
2023-05-22T20:32:58.651Z,9.75
2023-05-22T20:35:31.500Z,11.00
2023-05-22T20:38:03.862Z,8.43
2023-05-22T20:40:35.631Z,9.40
2023-05-22T20:43:07.396Z,8.15
2023-05-22T20:45:35.359Z,8.00
2023-05-22T20:48:02.050Z,8.07
2023-05-22T20:50:30.684Z,7.57
2023-05-22T20:53:05.405Z,4.63
2023-05-22T20:55:35.846Z,7.22
2023-05-22T20:58:03.679Z,7.40
2023-05-22T21:00:46.843Z,8.70
2023-05-22T21:03:17.896Z,5.82
2023-05-22T21:05:50.081Z,5.82
2023-05-22T21:08:19.036Z,6.40
2023-05-22T21:10:49.338Z,3.75
2023-05-22T21:13:21.741Z,3.70
2023-05-22T21:15:48.908Z,3.45
2023-05-22T21:18:19.208Z,4.45
2023-05-22T21:20:46.875Z,5.45
2023-05-22T21:23:19.368Z,3.35
2023-05-22T21:25:50.785Z,5.10
2023-05-22T21:28:41.963Z,4.15
2023-05-22T21:31:27.021Z,2.15
2023-05-22T21:34:07.842Z,3.80
2023-05-22T21:36:46.532Z,4.57
2023-05-22T21:39:14.523Z,3.27
2023-05-22T21:41:49.853Z,3.75
2023-05-22T21:44:24.631Z,4.10
2023-05-22T21:47:03.675Z,3.55
2023-05-22T21:49:39.909Z,4.80
2023-05-22T21:52:11.337Z,3.13
2023-05-22T21:57:26.935Z,3.97
2023-05-22T21:59:53.800Z,4.75
2023-05-22T22:02:20.902Z,4.32
2023-05-22T22:05:00.518Z,3.15
2023-05-22T22:07:27.126Z,3.13
2023-05-22T22:09:53.989Z,6.13
2023-05-22T22:12:20.487Z,2.88
2023-05-22T22:14:47.038Z,3.40
2023-05-22T22:17:24.053Z,3.20
2023-05-22T22:19:57.171Z,6.60
2023-05-22T22:22:25.029Z,4.50
2023-05-22T22:24:51.698Z,3.60
2023-05-22T22:27:19.745Z,8.10
2023-05-22T22:29:46.956Z,4.03
2023-05-22T22:32:14.704Z,4.53
2023-05-22T22:34:42.259Z,4.88
2023-05-22T22:37:10.292Z,6.78
2023-05-22T22:39:38.300Z,5.80
2023-05-22T22:42:05.495Z,7.82
2023-05-22T22:44:32.540Z,7.45
2023-05-22T22:47:02.775Z,4.65
2023-05-22T22:49:32.239Z,6.40
2023-05-22T22:51:59.677Z,5.83
2023-05-22T22:54:26.343Z,7.93
2023-05-22T22:56:53.071Z,6.60
2023-05-22T22:59:21.217Z,11.07
2023-05-22T23:01:50.265Z,6.82
2023-05-22T23:04:17.639Z,6.87
2023-05-22T23:06:44.530Z,5.60
2023-05-22T23:11:55.522Z,7.47
2023-05-22T23:14:24.754Z,6.50
2023-05-22T23:16:52.042Z,7.63
2023-05-22T23:19:21.253Z,8.57
2023-05-22T23:21:52.008Z,8.07
2023-05-22T23:24:22.681Z,8.93
2023-05-22T23:26:50.876Z,11.00
2023-05-22T23:29:18.181Z,10.00
2023-05-22T23:31:47.640Z,9.57
2023-05-22T23:34:14.921Z,9.38
2023-05-22T23:36:43.108Z,9.35
2023-05-22T23:39:10.817Z,11.80
2023-05-22T23:41:37.534Z,16.57
2023-05-22T23:44:05.680Z,9.95
2023-05-22T23:46:32.834Z,7.70
2023-05-22T23:48:59.495Z,13.23
2023-05-22T23:51:26.722Z,9.60
2023-05-22T23:53:56.854Z,11.53
2023-05-22T23:56:24.986Z,6.07
2023-05-22T23:58:51.594Z,6.97
